Aérodrome :
LOGIN :

S'inscrire | Disclaimer

   EN    FR    IT 

 










Légende :    VFR   VFR Marginal   IFR   IFR Intensif   IFR Très Intensif
Visi : 
Plafond : 
>= 8 km
>= 3000ft
5 à 8 km
1000 à 3000 ft
1500m à 5 km
500 à 1000 ft
800 à 1500m
200 à 500 ft
< 800m
< 200 ft
Symboles :   Orages  Brouillard  Fortes neiges  Fortes précipitations  Vent > 20 kt
SIGMETs :   Divers  Orages  Givrage  Turbulence  Onde Orograph.  Cendres Volcan.






- Altitude de l'aérodrome : 1959 ft
- Code IATA : HOQ


EDQM - Hof Plauen

DERNIER METAR :
  • 171820Z 20009KT 8000 FEW016 SCT028 BKN092 02/01 Q1017

METARs EXPIRÉS :
  • 171750Z 20011KT 8000 NSC 02/00 Q1017
  • 171720Z 21010KT 7000 NSC 01/00 Q1017
  • 171650Z 20010KT 7000 NSC 01/00 Q1017
  • 171620Z 20009KT 8000 NSC 02/00 Q1017
  • 171550Z 20006KT 7000 NSC 02/00 Q1017

TAF TAF EDQM
Valide du 17 à 18h jusqu'au 18 à 03h UTC


171700Z 1718/1803 20007KT 7000 NSC
BECMG 1720/1722 4000 -RA BR BKN008
TEMPO 1723/1803 2500 -SNRA BKN004



MET'MAP, la Météo Aéronautique d'un coup d'oeil ! - Copyright ORBIFLY Décembre 2007 - Disclaimer

ORBIFLY MET'MAP TEAM :

Programmation & Développement : Alexandra Zaïnal
Sur une idée originale de : Baudouin d'Aumeries
Assistance à la programmation : Marc-Olivier Méhu
Soutien technique & logistique : Manuel Goepfert

Contact : metmap@orbifly.com




SOURCES & CREDITS :

   NOAA